sensor_id;sensor_type;location;lat;lon;timestamp;P1;durP1;ratioP1;P2;durP2;ratioP2
10260;SDS011;5175;42.606;23.388;2022-10-22T00:01:02;14.43;;;12.27;;
10260;SDS011;5175;42.606;23.388;2022-10-22T00:03:30;12.27;;;10.97;;
10260;SDS011;5175;42.606;23.388;2022-10-22T00:05:56;11.43;;;10.00;;
10260;SDS011;5175;42.606;23.388;2022-10-22T00:08:23;11.83;;;9.67;;
10260;SDS011;5175;42.606;23.388;2022-10-22T00:10:52;10.77;;;9.67;;
10260;SDS011;5175;42.606;23.388;2022-10-22T00:13:19;10.93;;;9.83;;
10260;SDS011;5175;42.606;23.388;2022-10-22T00:15:46;13.63;;;11.50;;
10260;SDS011;5175;42.606;23.388;2022-10-22T00:18:13;17.90;;;13.00;;
10260;SDS011;5175;42.606;23.388;2022-10-22T00:20:40;14.47;;;11.97;;
10260;SDS011;5175;42.606;23.388;2022-10-22T00:23:07;12.87;;;11.57;;
10260;SDS011;5175;42.606;23.388;2022-10-22T00:25:34;10.83;;;9.57;;
10260;SDS011;5175;42.606;23.388;2022-10-22T00:28:03;11.60;;;10.20;;
10260;SDS011;5175;42.606;23.388;2022-10-22T00:30:30;9.87;;;8.87;;
10260;SDS011;5175;42.606;23.388;2022-10-22T00:32:56;9.60;;;8.70;;
10260;SDS011;5175;42.606;23.388;2022-10-22T00:35:25;11.40;;;10.20;;
10260;SDS011;5175;42.606;23.388;2022-10-22T00:37:52;12.90;;;10.10;;
10260;SDS011;5175;42.606;23.388;2022-10-22T00:40:19;13.97;;;9.70;;
10260;SDS011;5175;42.606;23.388;2022-10-22T00:42:45;11.87;;;9.50;;
10260;SDS011;5175;42.606;23.388;2022-10-22T00:45:18;12.43;;;10.73;;
10260;SDS011;5175;42.606;23.388;2022-10-22T00:47:50;12.87;;;11.57;;
10260;SDS011;5175;42.606;23.388;2022-10-22T00:50:21;14.10;;;12.37;;
10260;SDS011;5175;42.606;23.388;2022-10-22T00:52:52;12.53;;;11.03;;
10260;SDS011;5175;42.606;23.388;2022-10-22T00:55:20;13.20;;;11.40;;
10260;SDS011;5175;42.606;23.388;2022-10-22T00:57:49;13.10;;;11.57;;
10260;SDS011;5175;42.606;23.388;2022-10-22T01:00:19;11.77;;;10.57;;
10260;SDS011;5175;42.606;23.388;2022-10-22T01:02:46;12.43;;;10.03;;
10260;SDS011;5175;42.606;23.388;2022-10-22T01:05:14;11.27;;;9.57;;
10260;SDS011;5175;42.606;23.388;2022-10-22T01:07:43;11.90;;;9.20;;
10260;SDS011;5175;42.606;23.388;2022-10-22T01:10:16;11.73;;;9.73;;
10260;SDS011;5175;42.606;23.388;2022-10-22T01:12:54;11.60;;;10.40;;
10260;SDS011;5175;42.606;23.388;2022-10-22T01:15:31;10.20;;;9.20;;
10260;SDS011;5175;42.606;23.388;2022-10-22T01:18:07;12.43;;;9.63;;
10260;SDS011;5175;42.606;23.388;2022-10-22T01:20:45;11.03;;;9.87;;
10260;SDS011;5175;42.606;23.388;2022-10-22T01:23:35;11.53;;;9.10;;
10260;SDS011;5175;42.606;23.388;2022-10-22T01:26:27;13.47;;;10.23;;
10260;SDS011;5175;42.606;23.388;2022-10-22T01:29:04;15.40;;;10.37;;
10260;SDS011;5175;42.606;23.388;2022-10-22T01:31:37;10.87;;;9.37;;
10260;SDS011;5175;42.606;23.388;2022-10-22T01:34:09;12.80;;;9.70;;
10260;SDS011;5175;42.606;23.388;2022-10-22T01:36:39;10.30;;;8.70;;
10260;SDS011;5175;42.606;23.388;2022-10-22T01:39:08;10.20;;;9.10;;
10260;SDS011;5175;42.606;23.388;2022-10-22T01:41:37;10.20;;;9.10;;
10260;SDS011;5175;42.606;23.388;2022-10-22T01:44:20;10.07;;;8.87;;
10260;SDS011;5175;42.606;23.388;2022-10-22T01:46:49;12.60;;;10.13;;
10260;SDS011;5175;42.606;23.388;2022-10-22T01:49:23;12.97;;;11.30;;
10260;SDS011;5175;42.606;23.388;2022-10-22T01:51:58;11.17;;;9.97;;
10260;SDS011;5175;42.606;23.388;2022-10-22T01:54:38;10.43;;;9.40;;
10260;SDS011;5175;42.606;23.388;2022-10-22T01:57:12;10.80;;;9.57;;
10260;SDS011;5175;42.606;23.388;2022-10-22T01:59:49;12.17;;;9.97;;
10260;SDS011;5175;42.606;23.388;2022-10-22T02:02:25;14.47;;;11.70;;
10260;SDS011;5175;42.606;23.388;2022-10-22T02:05:00;14.67;;;11.83;;
10260;SDS011;5175;42.606;23.388;2022-10-22T02:07:33;12.73;;;10.70;;
10260;SDS011;5175;42.606;23.388;2022-10-22T02:10:07;13.43;;;11.00;;
10260;SDS011;5175;42.606;23.388;2022-10-22T02:12:36;12.63;;;11.30;;
10260;SDS011;5175;42.606;23.388;2022-10-22T02:15:06;14.50;;;12.83;;
10260;SDS011;5175;42.606;23.388;2022-10-22T02:17:35;14.67;;;12.03;;
10260;SDS011;5175;42.606;23.388;2022-10-22T02:20:05;13.53;;;12.13;;
10260;SDS011;5175;42.606;23.388;2022-10-22T02:22:37;15.50;;;12.60;;
10260;SDS011;5175;42.606;23.388;2022-10-22T02:25:04;13.33;;;12.00;;
10260;SDS011;5175;42.606;23.388;2022-10-22T02:27:34;14.50;;;11.40;;
10260;SDS011;5175;42.606;23.388;2022-10-22T02:30:08;14.73;;;12.53;;
10260;SDS011;5175;42.606;23.388;2022-10-22T02:32:39;14.87;;;13.27;;
10260;SDS011;5175;42.606;23.388;2022-10-22T02:35:14;13.50;;;12.00;;
10260;SDS011;5175;42.606;23.388;2022-10-22T02:37:45;13.77;;;11.93;;
10260;SDS011;5175;42.606;23.388;2022-10-22T02:40:13;12.53;;;11.23;;
10260;SDS011;5175;42.606;23.388;2022-10-22T02:42:40;12.00;;;10.80;;
10260;SDS011;5175;42.606;23.388;2022-10-22T02:45:10;11.63;;;10.43;;
10260;SDS011;5175;42.606;23.388;2022-10-22T02:47:36;11.43;;;10.23;;
10260;SDS011;5175;42.606;23.388;2022-10-22T02:50:04;15.27;;;11.30;;
10260;SDS011;5175;42.606;23.388;2022-10-22T02:52:32;11.50;;;10.30;;
10260;SDS011;5175;42.606;23.388;2022-10-22T02:54:58;12.33;;;11.10;;
10260;SDS011;5175;42.606;23.388;2022-10-22T02:57:25;12.20;;;10.67;;
10260;SDS011;5175;42.606;23.388;2022-10-22T02:59:54;13.90;;;10.87;;
10260;SDS011;5175;42.606;23.388;2022-10-22T03:02:22;17.37;;;13.40;;
10260;SDS011;5175;42.606;23.388;2022-10-22T03:04:52;16.97;;;13.20;;
10260;SDS011;5175;42.606;23.388;2022-10-22T03:07:19;16.27;;;11.90;;
10260;SDS011;5175;42.606;23.388;2022-10-22T03:09:46;13.47;;;11.47;;
10260;SDS011;5175;42.606;23.388;2022-10-22T03:12:12;13.03;;;11.73;;
10260;SDS011;5175;42.606;23.388;2022-10-22T03:14:39;13.70;;;12.13;;
10260;SDS011;5175;42.606;23.388;2022-10-22T03:17:06;14.60;;;12.83;;
10260;SDS011;5175;42.606;23.388;2022-10-22T03:19:34;15.07;;;12.80;;
10260;SDS011;5175;42.606;23.388;2022-10-22T03:22:02;13.23;;;11.57;;
10260;SDS011;5175;42.606;23.388;2022-10-22T03:24:33;13.73;;;11.50;;
10260;SDS011;5175;42.606;23.388;2022-10-22T03:27:02;12.23;;;10.57;;
10260;SDS011;5175;42.606;23.388;2022-10-22T03:29:29;12.03;;;10.63;;
10260;SDS011;5175;42.606;23.388;2022-10-22T03:31:58;12.17;;;10.90;;
10260;SDS011;5175;42.606;23.388;2022-10-22T03:34:25;15.17;;;11.47;;
10260;SDS011;5175;42.606;23.388;2022-10-22T03:36:53;15.20;;;11.63;;
10260;SDS011;5175;42.606;23.388;2022-10-22T03:39:22;14.07;;;11.40;;
10260;SDS011;5175;42.606;23.388;2022-10-22T03:41:50;11.47;;;9.57;;
10260;SDS011;5175;42.606;23.388;2022-10-22T03:44:18;16.30;;;11.23;;
10260;SDS011;5175;42.606;23.388;2022-10-22T03:46:46;15.43;;;11.13;;
10260;SDS011;5175;42.606;23.388;2022-10-22T03:49:13;13.97;;;10.30;;
10260;SDS011;5175;42.606;23.388;2022-10-22T03:51:40;17.20;;;11.27;;
10260;SDS011;5175;42.606;23.388;2022-10-22T03:54:08;13.77;;;10.60;;
10260;SDS011;5175;42.606;23.388;2022-10-22T03:56:35;12.40;;;10.70;;
10260;SDS011;5175;42.606;23.388;2022-10-22T03:59:02;12.13;;;10.00;;
10260;SDS011;5175;42.606;23.388;2022-10-22T04:01:29;10.57;;;9.50;;
10260;SDS011;5175;42.606;23.388;2022-10-22T04:03:56;12.57;;;10.17;;
10260;SDS011;5175;42.606;23.388;2022-10-22T04:06:24;10.90;;;9.80;;
10260;SDS011;5175;42.606;23.388;2022-10-22T04:08:51;12.33;;;10.17;;
10260;SDS011;5175;42.606;23.388;2022-10-22T04:11:19;11.37;;;9.97;;
10260;SDS011;5175;42.606;23.388;2022-10-22T04:13:46;12.53;;;10.37;;
10260;SDS011;5175;42.606;23.388;2022-10-22T04:16:14;12.00;;;10.00;;
10260;SDS011;5175;42.606;23.388;2022-10-22T04:18:42;14.60;;;11.60;;
10260;SDS011;5175;42.606;23.388;2022-10-22T04:21:11;13.07;;;11.67;;
10260;SDS011;5175;42.606;23.388;2022-10-22T04:23:43;13.20;;;11.83;;
10260;SDS011;5175;42.606;23.388;2022-10-22T04:26:11;13.60;;;12.20;;
10260;SDS011;5175;42.606;23.388;2022-10-22T04:28:39;17.40;;;14.00;;
10260;SDS011;5175;42.606;23.388;2022-10-22T04:31:07;14.13;;;12.63;;
10260;SDS011;5175;42.606;23.388;2022-10-22T04:33:34;15.37;;;13.40;;
10260;SDS011;5175;42.606;23.388;2022-10-22T04:36:04;14.83;;;12.90;;
10260;SDS011;5175;42.606;23.388;2022-10-22T04:38:32;15.47;;;12.40;;
10260;SDS011;5175;42.606;23.388;2022-10-22T04:41:06;15.13;;;12.87;;
10260;SDS011;5175;42.606;23.388;2022-10-22T04:43:34;16.13;;;13.13;;
10260;SDS011;5175;42.606;23.388;2022-10-22T04:46:02;13.83;;;12.30;;
10260;SDS011;5175;42.606;23.388;2022-10-22T04:48:29;14.17;;;12.67;;
10260;SDS011;5175;42.606;23.388;2022-10-22T04:50:56;15.43;;;12.47;;
10260;SDS011;5175;42.606;23.388;2022-10-22T04:53:26;15.73;;;12.90;;
10260;SDS011;5175;42.606;23.388;2022-10-22T04:56:05;14.70;;;13.20;;
10260;SDS011;5175;42.606;23.388;2022-10-22T04:58:32;14.93;;;13.37;;
10260;SDS011;5175;42.606;23.388;2022-10-22T05:00:59;16.70;;;13.77;;
10260;SDS011;5175;42.606;23.388;2022-10-22T05:03:27;17.70;;;13.63;;
10260;SDS011;5175;42.606;23.388;2022-10-22T05:05:54;15.00;;;13.40;;
10260;SDS011;5175;42.606;23.388;2022-10-22T05:08:21;15.23;;;13.50;;
10260;SDS011;5175;42.606;23.388;2022-10-22T05:10:48;14.47;;;12.50;;
10260;SDS011;5175;42.606;23.388;2022-10-22T05:13:14;14.67;;;12.50;;
10260;SDS011;5175;42.606;23.388;2022-10-22T05:15:41;16.07;;;13.83;;
10260;SDS011;5175;42.606;23.388;2022-10-22T05:18:08;15.97;;;13.03;;
10260;SDS011;5175;42.606;23.388;2022-10-22T05:20:39;14.93;;;13.33;;
10260;SDS011;5175;42.606;23.388;2022-10-22T05:23:06;15.40;;;13.17;;
10260;SDS011;5175;42.606;23.388;2022-10-22T05:25:35;15.30;;;13.77;;
10260;SDS011;5175;42.606;23.388;2022-10-22T05:28:02;15.17;;;13.30;;
10260;SDS011;5175;42.606;23.388;2022-10-22T05:30:29;15.13;;;12.57;;
10260;SDS011;5175;42.606;23.388;2022-10-22T05:32:56;14.77;;;12.73;;
10260;SDS011;5175;42.606;23.388;2022-10-22T05:35:23;14.27;;;11.90;;
10260;SDS011;5175;42.606;23.388;2022-10-22T05:37:51;14.10;;;12.70;;
10260;SDS011;5175;42.606;23.388;2022-10-22T05:40:18;13.67;;;12.27;;
10260;SDS011;5175;42.606;23.388;2022-10-22T05:42:45;15.63;;;13.27;;
10260;SDS011;5175;42.606;23.388;2022-10-22T05:45:12;14.73;;;12.87;;
10260;SDS011;5175;42.606;23.388;2022-10-22T05:47:39;17.57;;;12.77;;
10260;SDS011;5175;42.606;23.388;2022-10-22T05:50:06;15.80;;;14.20;;
10260;SDS011;5175;42.606;23.388;2022-10-22T05:52:33;16.23;;;14.53;;
10260;SDS011;5175;42.606;23.388;2022-10-22T05:55:01;16.63;;;14.20;;
10260;SDS011;5175;42.606;23.388;2022-10-22T05:57:28;23.63;;;21.33;;
10260;SDS011;5175;42.606;23.388;2022-10-22T05:59:55;21.90;;;19.67;;
10260;SDS011;5175;42.606;23.388;2022-10-22T06:02:22;25.63;;;23.00;;
10260;SDS011;5175;42.606;23.388;2022-10-22T06:04:49;22.17;;;19.87;;
10260;SDS011;5175;42.606;23.388;2022-10-22T06:07:16;23.07;;;18.33;;
10260;SDS011;5175;42.606;23.388;2022-10-22T06:09:43;21.43;;;17.80;;
10260;SDS011;5175;42.606;23.388;2022-10-22T06:12:13;18.03;;;15.47;;
10260;SDS011;5175;42.606;23.388;2022-10-22T06:14:40;16.93;;;14.93;;
10260;SDS011;5175;42.606;23.388;2022-10-22T06:17:06;16.60;;;14.47;;
10260;SDS011;5175;42.606;23.388;2022-10-22T06:19:34;17.87;;;15.10;;
10260;SDS011;5175;42.606;23.388;2022-10-22T06:22:02;15.27;;;13.30;;
10260;SDS011;5175;42.606;23.388;2022-10-22T06:24:29;15.03;;;13.53;;
10260;SDS011;5175;42.606;23.388;2022-10-22T06:26:56;14.90;;;13.40;;
10260;SDS011;5175;42.606;23.388;2022-10-22T06:29:24;16.50;;;14.37;;
10260;SDS011;5175;42.606;23.388;2022-10-22T06:31:51;17.63;;;15.80;;
10260;SDS011;5175;42.606;23.388;2022-10-22T06:34:18;21.53;;;16.37;;
10260;SDS011;5175;42.606;23.388;2022-10-22T06:36:45;19.20;;;16.70;;
10260;SDS011;5175;42.606;23.388;2022-10-22T06:39:14;22.17;;;17.30;;
10260;SDS011;5175;42.606;23.388;2022-10-22T06:41:42;21.77;;;18.83;;
10260;SDS011;5175;42.606;23.388;2022-10-22T06:44:11;20.00;;;17.90;;
10260;SDS011;5175;42.606;23.388;2022-10-22T06:46:40;20.60;;;16.83;;
10260;SDS011;5175;42.606;23.388;2022-10-22T06:49:08;22.77;;;18.30;;
10260;SDS011;5175;42.606;23.388;2022-10-22T06:51:38;22.07;;;17.90;;
10260;SDS011;5175;42.606;23.388;2022-10-22T06:54:04;21.23;;;16.20;;
10260;SDS011;5175;42.606;23.388;2022-10-22T06:56:31;18.33;;;16.33;;
10260;SDS011;5175;42.606;23.388;2022-10-22T06:58:58;24.47;;;18.37;;
10260;SDS011;5175;42.606;23.388;2022-10-22T07:01:28;19.70;;;17.70;;
10260;SDS011;5175;42.606;23.388;2022-10-22T07:03:59;18.30;;;16.40;;
10260;SDS011;5175;42.606;23.388;2022-10-22T07:06:27;20.13;;;17.53;;
10260;SDS011;5175;42.606;23.388;2022-10-22T07:08:55;19.20;;;17.03;;
10260;SDS011;5175;42.606;23.388;2022-10-22T07:11:24;17.03;;;15.07;;
10260;SDS011;5175;42.606;23.388;2022-10-22T07:13:52;25.47;;;18.93;;
10260;SDS011;5175;42.606;23.388;2022-10-22T07:16:20;24.43;;;17.53;;
10260;SDS011;5175;42.606;23.388;2022-10-22T07:18:49;23.07;;;16.67;;
10260;SDS011;5175;42.606;23.388;2022-10-22T07:21:18;23.30;;;16.83;;
10260;SDS011;5175;42.606;23.388;2022-10-22T07:23:46;23.70;;;18.53;;
10260;SDS011;5175;42.606;23.388;2022-10-22T07:26:13;27.13;;;18.37;;
10260;SDS011;5175;42.606;23.388;2022-10-22T07:28:42;25.83;;;19.37;;
10260;SDS011;5175;42.606;23.388;2022-10-22T07:31:10;23.17;;;19.40;;
10260;SDS011;5175;42.606;23.388;2022-10-22T07:33:37;21.27;;;18.43;;
10260;SDS011;5175;42.606;23.388;2022-10-22T07:36:05;20.93;;;18.73;;
10260;SDS011;5175;42.606;23.388;2022-10-22T07:38:36;22.73;;;19.63;;
10260;SDS011;5175;42.606;23.388;2022-10-22T07:41:03;25.27;;;18.77;;
10260;SDS011;5175;42.606;23.388;2022-10-22T07:43:30;29.00;;;20.77;;
10260;SDS011;5175;42.606;23.388;2022-10-22T07:45:57;24.83;;;19.70;;
10260;SDS011;5175;42.606;23.388;2022-10-22T07:48:26;23.80;;;19.83;;
10260;SDS011;5175;42.606;23.388;2022-10-22T07:50:53;21.33;;;19.00;;
10260;SDS011;5175;42.606;23.388;2022-10-22T07:53:20;23.03;;;19.20;;
10260;SDS011;5175;42.606;23.388;2022-10-22T07:55:49;26.10;;;19.83;;
10260;SDS011;5175;42.606;23.388;2022-10-22T07:58:16;23.43;;;19.37;;
10260;SDS011;5175;42.606;23.388;2022-10-22T08:00:44;23.47;;;17.97;;
10260;SDS011;5175;42.606;23.388;2022-10-22T08:03:12;22.27;;;18.03;;
10260;SDS011;5175;42.606;23.388;2022-10-22T08:05:40;24.50;;;18.77;;
10260;SDS011;5175;42.606;23.388;2022-10-22T08:08:07;21.10;;;17.83;;
10260;SDS011;5175;42.606;23.388;2022-10-22T08:10:35;21.57;;;18.47;;
10260;SDS011;5175;42.606;23.388;2022-10-22T08:13:03;22.57;;;18.40;;
10260;SDS011;5175;42.606;23.388;2022-10-22T08:15:31;23.40;;;18.77;;
10260;SDS011;5175;42.606;23.388;2022-10-22T08:17:58;20.50;;;17.57;;
10260;SDS011;5175;42.606;23.388;2022-10-22T08:20:25;23.50;;;20.13;;
10260;SDS011;5175;42.606;23.388;2022-10-22T08:22:52;24.97;;;20.33;;
10260;SDS011;5175;42.606;23.388;2022-10-22T08:25:19;22.03;;;19.63;;
10260;SDS011;5175;42.606;23.388;2022-10-22T08:27:46;21.83;;;19.53;;
10260;SDS011;5175;42.606;23.388;2022-10-22T08:30:14;21.73;;;18.63;;
10260;SDS011;5175;42.606;23.388;2022-10-22T08:32:41;20.37;;;18.17;;
10260;SDS011;5175;42.606;23.388;2022-10-22T08:35:08;20.87;;;18.23;;
10260;SDS011;5175;42.606;23.388;2022-10-22T08:37:35;20.00;;;17.67;;
10260;SDS011;5175;42.606;23.388;2022-10-22T08:40:02;18.53;;;16.53;;
10260;SDS011;5175;42.606;23.388;2022-10-22T08:42:41;47.93;;;19.83;;
10260;SDS011;5175;42.606;23.388;2022-10-22T08:45:27;22.80;;;16.67;;
10260;SDS011;5175;42.606;23.388;2022-10-22T08:48:07;20.87;;;16.43;;
10260;SDS011;5175;42.606;23.388;2022-10-22T08:50:44;22.20;;;17.33;;
10260;SDS011;5175;42.606;23.388;2022-10-22T08:53:14;20.63;;;18.13;;
10260;SDS011;5175;42.606;23.388;2022-10-22T08:55:44;23.67;;;19.53;;
10260;SDS011;5175;42.606;23.388;2022-10-22T08:58:16;25.80;;;19.07;;
10260;SDS011;5175;42.606;23.388;2022-10-22T09:00:51;24.03;;;18.30;;
10260;SDS011;5175;42.606;23.388;2022-10-22T09:03:26;21.03;;;17.53;;
10260;SDS011;5175;42.606;23.388;2022-10-22T09:06:02;19.50;;;17.50;;
10260;SDS011;5175;42.606;23.388;2022-10-22T09:08:34;19.73;;;17.67;;
10260;SDS011;5175;42.606;23.388;2022-10-22T09:11:04;21.47;;;17.40;;
10260;SDS011;5175;42.606;23.388;2022-10-22T09:13:39;21.13;;;17.70;;
10260;SDS011;5175;42.606;23.388;2022-10-22T09:16:13;20.17;;;17.40;;
10260;SDS011;5175;42.606;23.388;2022-10-22T09:18:42;19.23;;;17.23;;
10260;SDS011;5175;42.606;23.388;2022-10-22T09:21:25;20.17;;;17.97;;
10260;SDS011;5175;42.606;23.388;2022-10-22T09:24:02;17.80;;;15.87;;
10260;SDS011;5175;42.606;23.388;2022-10-22T09:26:36;17.67;;;15.63;;
10260;SDS011;5175;42.606;23.388;2022-10-22T09:29:04;20.63;;;17.37;;
10260;SDS011;5175;42.606;23.388;2022-10-22T09:31:33;23.13;;;17.20;;
10260;SDS011;5175;42.606;23.388;2022-10-22T09:34:00;18.87;;;15.93;;
10260;SDS011;5175;42.606;23.388;2022-10-22T09:36:31;18.87;;;16.93;;
10260;SDS011;5175;42.606;23.388;2022-10-22T09:39:00;18.93;;;16.90;;
10260;SDS011;5175;42.606;23.388;2022-10-22T09:41:28;21.10;;;17.27;;
10260;SDS011;5175;42.606;23.388;2022-10-22T09:43:55;22.10;;;16.80;;
10260;SDS011;5175;42.606;23.388;2022-10-22T09:46:24;19.77;;;17.67;;
10260;SDS011;5175;42.606;23.388;2022-10-22T09:48:59;18.70;;;16.80;;
10260;SDS011;5175;42.606;23.388;2022-10-22T09:51:35;18.90;;;16.13;;
10260;SDS011;5175;42.606;23.388;2022-10-22T09:54:14;18.53;;;16.33;;
10260;SDS011;5175;42.606;23.388;2022-10-22T09:56:49;17.93;;;15.43;;
10260;SDS011;5175;42.606;23.388;2022-10-22T09:59:23;17.80;;;15.97;;
10260;SDS011;5175;42.606;23.388;2022-10-22T10:01:56;19.57;;;15.57;;
10260;SDS011;5175;42.606;23.388;2022-10-22T10:04:27;19.55;;;16.40;;
10260;SDS011;5175;42.606;23.388;2022-10-22T10:07:00;18.77;;;15.70;;
10260;SDS011;5175;42.606;23.388;2022-10-22T10:09:27;18.35;;;15.40;;
10260;SDS011;5175;42.606;23.388;2022-10-22T10:11:58;21.25;;;14.63;;
10260;SDS011;5175;42.606;23.388;2022-10-22T10:14:36;19.02;;;15.52;;
10260;SDS011;5175;42.606;23.388;2022-10-22T10:17:13;19.92;;;15.00;;
10260;SDS011;5175;42.606;23.388;2022-10-22T10:19:54;18.65;;;15.20;;
10260;SDS011;5175;42.606;23.388;2022-10-22T10:22:32;16.23;;;14.52;;
10260;SDS011;5175;42.606;23.388;2022-10-22T10:25:17;16.48;;;14.88;;
10260;SDS011;5175;42.606;23.388;2022-10-22T10:27:53;19.98;;;16.25;;
10260;SDS011;5175;42.606;23.388;2022-10-22T10:30:26;18.35;;;16.38;;
10260;SDS011;5175;42.606;23.388;2022-10-22T10:33:04;19.63;;;15.55;;
10260;SDS011;5175;42.606;23.388;2022-10-22T10:35:44;14.90;;;13.00;;
10260;SDS011;5175;42.606;23.388;2022-10-22T10:38:37;14.27;;;12.77;;
10260;SDS011;5175;42.606;23.388;2022-10-22T10:41:16;16.02;;;13.55;;
10260;SDS011;5175;42.606;23.388;2022-10-22T10:44:00;16.25;;;14.23;;
10260;SDS011;5175;42.606;23.388;2022-10-22T10:46:42;16.90;;;13.23;;
10260;SDS011;5175;42.606;23.388;2022-10-22T10:49:18;15.15;;;13.65;;
10260;SDS011;5175;42.606;23.388;2022-10-22T10:51:52;15.32;;;13.27;;
10260;SDS011;5175;42.606;23.388;2022-10-22T10:54:26;16.40;;;14.27;;
10260;SDS011;5175;42.606;23.388;2022-10-22T10:57:01;15.85;;;14.02;;
10260;SDS011;5175;42.606;23.388;2022-10-22T10:59:38;17.40;;;14.68;;
10260;SDS011;5175;42.606;23.388;2022-10-22T11:02:35;15.48;;;12.95;;
10260;SDS011;5175;42.606;23.388;2022-10-22T11:05:29;17.05;;;12.95;;
10260;SDS011;5175;42.606;23.388;2022-10-22T11:08:06;14.23;;;12.85;;
10260;SDS011;5175;42.606;23.388;2022-10-22T11:10:40;13.98;;;12.50;;
10260;SDS011;5175;42.606;23.388;2022-10-22T11:13:13;14.15;;;12.25;;
10260;SDS011;5175;42.606;23.388;2022-10-22T11:15:47;13.50;;;11.52;;
10260;SDS011;5175;42.606;23.388;2022-10-22T11:18:19;15.25;;;12.15;;
10260;SDS011;5175;42.606;23.388;2022-10-22T11:20:54;19.75;;;13.15;;
10260;SDS011;5175;42.606;23.388;2022-10-22T11:23:31;16.92;;;12.77;;
10260;SDS011;5175;42.606;23.388;2022-10-22T11:26:03;17.10;;;12.85;;
10260;SDS011;5175;42.606;23.388;2022-10-22T11:28:36;13.13;;;11.77;;
10260;SDS011;5175;42.606;23.388;2022-10-22T11:31:08;13.85;;;11.98;;
10260;SDS011;5175;42.606;23.388;2022-10-22T11:33:41;16.75;;;11.73;;
10260;SDS011;5175;42.606;23.388;2022-10-22T11:36:11;14.52;;;12.90;;
10260;SDS011;5175;42.606;23.388;2022-10-22T11:38:40;18.25;;;12.15;;
10260;SDS011;5175;42.606;23.388;2022-10-22T11:41:09;14.60;;;12.43;;
10260;SDS011;5175;42.606;23.388;2022-10-22T11:43:51;13.63;;;12.05;;
10260;SDS011;5175;42.606;23.388;2022-10-22T11:46:24;13.00;;;11.70;;
10260;SDS011;5175;42.606;23.388;2022-10-22T11:49:04;12.85;;;11.30;;
10260;SDS011;5175;42.606;23.388;2022-10-22T11:51:48;13.50;;;10.98;;
10260;SDS011;5175;42.606;23.388;2022-10-22T11:54:29;14.88;;;12.68;;
10260;SDS011;5175;42.606;23.388;2022-10-22T11:57:19;13.15;;;11.95;;
10260;SDS011;5175;42.606;23.388;2022-10-22T11:59:51;16.63;;;11.30;;
10260;SDS011;5175;42.606;23.388;2022-10-22T12:02:23;13.73;;;11.15;;
10260;SDS011;5175;42.606;23.388;2022-10-22T12:07:50;14.55;;;11.45;;
10260;SDS011;5175;42.606;23.388;2022-10-22T12:10:24;12.15;;;10.88;;
10260;SDS011;5175;42.606;23.388;2022-10-22T12:12:54;11.27;;;10.18;;
10260;SDS011;5175;42.606;23.388;2022-10-22T12:15:23;12.13;;;10.52;;
10260;SDS011;5175;42.606;23.388;2022-10-22T12:17:55;11.32;;;10.27;;
10260;SDS011;5175;42.606;23.388;2022-10-22T12:20:25;12.02;;;10.77;;
10260;SDS011;5175;42.606;23.388;2022-10-22T12:22:53;11.70;;;10.45;;
10260;SDS011;5175;42.606;23.388;2022-10-22T12:25:25;12.65;;;9.80;;
10260;SDS011;5175;42.606;23.388;2022-10-22T12:27:56;11.35;;;10.10;;
10260;SDS011;5175;42.606;23.388;2022-10-22T12:30:25;12.25;;;10.98;;
10260;SDS011;5175;42.606;23.388;2022-10-22T12:32:53;13.30;;;9.60;;
10260;SDS011;5175;42.606;23.388;2022-10-22T12:35:23;10.32;;;9.23;;
10260;SDS011;5175;42.606;23.388;2022-10-22T12:37:50;10.80;;;9.85;;
10260;SDS011;5175;42.606;23.388;2022-10-22T12:40:21;10.85;;;9.85;;
10260;SDS011;5175;42.606;23.388;2022-10-22T12:42:52;22.27;;;9.88;;
10260;SDS011;5175;42.606;23.388;2022-10-22T12:45:20;13.60;;;9.57;;
10260;SDS011;5175;42.606;23.388;2022-10-22T12:47:49;15.90;;;9.65;;
10260;SDS011;5175;42.606;23.388;2022-10-22T12:50:18;10.85;;;9.25;;
10260;SDS011;5175;42.606;23.388;2022-10-22T12:52:47;12.18;;;9.57;;
10260;SDS011;5175;42.606;23.388;2022-10-22T12:55:14;12.45;;;9.23;;
10260;SDS011;5175;42.606;23.388;2022-10-22T12:57:46;10.20;;;8.90;;
10260;SDS011;5175;42.606;23.388;2022-10-22T13:00:20;13.75;;;10.00;;
10260;SDS011;5175;42.606;23.388;2022-10-22T13:02:49;14.02;;;9.77;;
10260;SDS011;5175;42.606;23.388;2022-10-22T13:05:21;10.70;;;9.48;;
10260;SDS011;5175;42.606;23.388;2022-10-22T13:07:52;11.77;;;9.60;;
10260;SDS011;5175;42.606;23.388;2022-10-22T13:10:22;10.90;;;9.80;;
10260;SDS011;5175;42.606;23.388;2022-10-22T13:12:54;11.18;;;8.68;;
10260;SDS011;5175;42.606;23.388;2022-10-22T13:15:33;10.40;;;9.45;;
10260;SDS011;5175;42.606;23.388;2022-10-22T13:18:03;10.10;;;9.10;;
10260;SDS011;5175;42.606;23.388;2022-10-22T13:20:32;15.80;;;9.00;;
10260;SDS011;5175;42.606;23.388;2022-10-22T13:23:02;10.05;;;9.13;;
10260;SDS011;5175;42.606;23.388;2022-10-22T13:25:30;9.52;;;8.63;;
10260;SDS011;5175;42.606;23.388;2022-10-22T13:28:00;9.85;;;8.85;;
10260;SDS011;5175;42.606;23.388;2022-10-22T13:30:38;10.80;;;9.35;;
10260;SDS011;5175;42.606;23.388;2022-10-22T13:33:19;11.70;;;9.63;;
10260;SDS011;5175;42.606;23.388;2022-10-22T13:35:50;13.02;;;11.55;;
10260;SDS011;5175;42.606;23.388;2022-10-22T13:38:19;10.70;;;8.98;;
10260;SDS011;5175;42.606;23.388;2022-10-22T13:40:50;9.65;;;8.75;;
10260;SDS011;5175;42.606;23.388;2022-10-22T13:43:18;11.13;;;9.07;;
10260;SDS011;5175;42.606;23.388;2022-10-22T13:45:45;10.20;;;9.15;;
10260;SDS011;5175;42.606;23.388;2022-10-22T13:48:14;10.15;;;8.90;;
10260;SDS011;5175;42.606;23.388;2022-10-22T13:50:43;9.30;;;8.40;;
10260;SDS011;5175;42.606;23.388;2022-10-22T13:53:12;19.35;;;8.73;;
10260;SDS011;5175;42.606;23.388;2022-10-22T13:55:42;14.95;;;8.73;;
10260;SDS011;5175;42.606;23.388;2022-10-22T13:58:10;10.52;;;8.65;;
10260;SDS011;5175;42.606;23.388;2022-10-22T14:00:41;10.82;;;8.98;;
10260;SDS011;5175;42.606;23.388;2022-10-22T14:03:10;12.13;;;8.65;;
10260;SDS011;5175;42.606;23.388;2022-10-22T14:05:38;10.65;;;9.52;;
10260;SDS011;5175;42.606;23.388;2022-10-22T14:08:07;9.43;;;8.38;;
10260;SDS011;5175;42.606;23.388;2022-10-22T14:10:36;9.15;;;8.25;;
10260;SDS011;5175;42.606;23.388;2022-10-22T14:13:04;11.75;;;8.43;;
10260;SDS011;5175;42.606;23.388;2022-10-22T14:15:31;9.75;;;8.05;;
10260;SDS011;5175;42.606;23.388;2022-10-22T14:18:00;9.32;;;8.25;;
10260;SDS011;5175;42.606;23.388;2022-10-22T14:20:31;15.85;;;9.95;;
10260;SDS011;5175;42.606;23.388;2022-10-22T14:23:01;9.55;;;8.18;;
10260;SDS011;5175;42.606;23.388;2022-10-22T14:25:37;13.43;;;8.85;;
10260;SDS011;5175;42.606;23.388;2022-10-22T14:28:04;13.13;;;8.70;;
10260;SDS011;5175;42.606;23.388;2022-10-22T14:30:34;19.23;;;9.52;;
10260;SDS011;5175;42.606;23.388;2022-10-22T14:33:05;20.38;;;9.27;;
10260;SDS011;5175;42.606;23.388;2022-10-22T14:35:38;18.95;;;8.52;;
10260;SDS011;5175;42.606;23.388;2022-10-22T14:38:05;20.08;;;10.75;;
10260;SDS011;5175;42.606;23.388;2022-10-22T14:40:32;64.28;;;36.42;;
10260;SDS011;5175;42.606;23.388;2022-10-22T14:42:59;56.47;;;28.55;;
10260;SDS011;5175;42.606;23.388;2022-10-22T14:45:25;56.33;;;30.33;;
10260;SDS011;5175;42.606;23.388;2022-10-22T14:47:52;29.65;;;19.08;;